Aviation Digital Data Service (ADDS)

Output produced by METARs form (1801 UTC 26 July 2016)
found at http://aviationweather.gov/adds/metars/
 
KORH 261723Z 2618/2718 28013KT P6SM SCT050 
     FM262300 30008KT P6SM FEW050 
     FM270200 31005KT P6SM FEW200